createdAt,value
2023-02-27T00:00:24.497Z,103137.66
2023-02-27T00:02:52.129Z,103139.56
2023-02-27T00:05:19.480Z,103137.19
2023-02-27T00:07:46.066Z,103140.69
2023-02-27T00:10:13.863Z,103144.53
2023-02-27T00:12:40.573Z,103148.22
2023-02-27T00:15:10.115Z,103148.38
2023-02-27T00:17:36.930Z,103142.72
2023-02-27T00:20:05.573Z,103144.63
2023-02-27T00:22:32.178Z,103143.03
2023-02-27T00:24:58.776Z,103137.09
2023-02-27T00:27:25.318Z,103144.00
2023-02-27T00:29:51.771Z,103133.06
2023-02-27T00:32:18.324Z,103136.91
2023-02-27T00:34:44.864Z,103132.56
2023-02-27T00:37:11.311Z,103130.47
2023-02-27T00:39:37.774Z,103129.16
2023-02-27T00:42:04.572Z,103134.59
2023-02-27T00:44:31.074Z,103131.38
2023-02-27T00:46:57.530Z,103134.41
2023-02-27T00:49:25.360Z,103131.19
2023-02-27T00:51:52.352Z,103130.00
2023-02-27T00:54:19.058Z,103132.91
2023-02-27T00:56:45.932Z,103119.03
2023-02-27T00:59:12.452Z,103125.28
2023-02-27T01:01:38.992Z,103121.41
2023-02-27T01:04:05.541Z,103115.78
2023-02-27T01:06:32.491Z,103119.31
2023-02-27T01:08:59.026Z,103122.03
2023-02-27T01:11:25.881Z,103123.94
2023-02-27T01:13:53.223Z,103123.41
2023-02-27T01:16:19.711Z,103121.31
2023-02-27T01:18:46.627Z,103122.25
2023-02-27T01:21:13.231Z,103123.38
2023-02-27T01:23:39.774Z,103121.91
2023-02-27T01:26:06.343Z,103128.94
2023-02-27T01:28:33.111Z,103128.28
2023-02-27T01:30:59.692Z,103131.94
2023-02-27T01:33:26.489Z,103126.31
2023-02-27T01:35:53.010Z,103127.13
2023-02-27T01:38:19.508Z,103124.84
2023-02-27T01:40:46.162Z,103135.41
2023-02-27T01:43:18.130Z,103117.75
2023-02-27T01:45:49.767Z,103117.25
2023-02-27T01:48:25.168Z,103122.53
2023-02-27T01:51:03.630Z,103130.50
2023-02-27T01:53:34.115Z,103118.00
2023-02-27T01:56:07.817Z,103120.16
2023-02-27T01:58:34.515Z,103115.34
2023-02-27T02:01:01.142Z,103118.06
2023-02-27T02:04:07.034Z,103114.97
2023-02-27T02:06:36.475Z,103117.19
2023-02-27T02:09:04.508Z,103123.38
2023-02-27T02:11:31.174Z,103117.75
2023-02-27T02:14:00.226Z,103114.53
2023-02-27T02:16:48.861Z,103114.03
2023-02-27T02:19:46.126Z,103109.19
2023-02-27T02:22:18.291Z,103121.34
2023-02-27T02:25:02.804Z,103118.09
2023-02-27T02:27:38.400Z,103122.56
2023-02-27T02:30:23.419Z,103122.72
2023-02-27T02:33:15.146Z,103126.25
2023-02-27T02:35:53.732Z,103123.94
2023-02-27T02:38:29.318Z,103120.72
2023-02-27T02:41:08.122Z,103121.69
2023-02-27T02:43:55.920Z,103119.25
2023-02-27T02:46:36.284Z,103130.31
2023-02-27T02:49:30.511Z,103127.63
2023-02-27T02:52:19.205Z,103130.03
2023-02-27T02:54:57.911Z,103125.56
2023-02-27T02:57:33.675Z,103128.66
2023-02-27T03:00:20.182Z,103134.44
2023-02-27T03:02:55.662Z,103127.25
2023-02-27T03:05:27.266Z,103125.34
2023-02-27T03:07:58.925Z,103131.00
2023-02-27T03:10:49.624Z,103127.50
2023-02-27T03:13:41.887Z,103128.31
2023-02-27T03:16:37.035Z,103127.63
2023-02-27T03:19:13.176Z,103125.88
2023-02-27T03:22:02.273Z,103126.97
2023-02-27T03:25:04.326Z,103130.47
2023-02-27T03:27:37.097Z,103124.41
2023-02-27T03:30:15.963Z,103119.28
2023-02-27T03:32:56.905Z,103121.53
2023-02-27T03:35:32.677Z,103121.28
2023-02-27T03:38:12.240Z,103117.25
2023-02-27T03:41:03.600Z,103112.53
2023-02-27T03:43:55.435Z,103116.22
2023-02-27T03:46:26.517Z,103112.19
2023-02-27T03:48:53.158Z,103108.16
2023-02-27T03:51:22.582Z,103115.03
2023-02-27T03:54:10.082Z,103103.19
2023-02-27T03:56:52.015Z,103112.75
2023-02-27T03:59:18.965Z,103120.59
2023-02-27T04:01:45.812Z,103119.78
2023-02-27T04:04:14.762Z,103123.28
2023-02-27T04:07:07.365Z,103128.41
2023-02-27T04:09:41.600Z,103128.53
2023-02-27T04:12:22.955Z,103129.66
2023-02-27T04:14:52.194Z,103138.28
2023-02-27T04:17:27.863Z,103138.28
2023-02-27T04:20:29.414Z,103139.22
2023-02-27T04:23:02.865Z,103141.13
2023-02-27T04:25:51.837Z,103149.47
2023-02-27T04:28:18.303Z,103152.19
2023-02-27T04:31:17.486Z,103154.59
2023-02-27T04:33:52.076Z,103151.38
2023-02-27T04:36:27.401Z,103153.28
2023-02-27T04:38:59.559Z,103150.06
2023-02-27T04:41:33.389Z,103158.69
2023-02-27T04:44:02.022Z,103163.00
2023-02-27T04:46:31.519Z,103159.94
2023-02-27T04:49:01.079Z,103162.31
2023-02-27T04:51:34.926Z,103164.09
2023-02-27T04:54:11.770Z,103163.28
2023-02-27T04:56:44.664Z,103168.53
2023-02-27T04:59:21.996Z,103167.75
2023-02-27T05:01:56.928Z,103164.66
2023-02-27T05:04:27.245Z,103166.69
2023-02-27T05:06:55.832Z,103160.09
2023-02-27T05:09:53.189Z,103169.69
2023-02-27T05:12:28.798Z,103158.78
2023-02-27T05:15:04.630Z,103162.44
2023-02-27T05:17:37.037Z,103169.28
2023-02-27T05:20:07.257Z,103167.69
2023-02-27T05:22:53.959Z,103178.06
2023-02-27T05:25:33.427Z,103181.72
2023-02-27T05:28:07.344Z,103178.47
2023-02-27T05:30:40.680Z,103182.94
2023-02-27T05:33:20.745Z,103183.88
2023-02-27T05:35:54.852Z,103179.56
2023-02-27T05:38:45.043Z,103180.50
2023-02-27T05:41:19.708Z,103181.47
2023-02-27T05:43:56.110Z,103176.34
2023-02-27T05:46:27.363Z,103180.63
2023-02-27T05:48:59.397Z,103183.50
2023-02-27T05:51:30.135Z,103183.50
2023-02-27T05:54:05.755Z,103192.78
2023-02-27T05:56:35.449Z,103186.06
2023-02-27T05:59:19.135Z,103194.66
2023-02-27T06:01:46.511Z,103200.59
2023-02-27T06:04:13.150Z,103199.78
2023-02-27T06:06:41.936Z,103193.06
2023-02-27T06:09:09.578Z,103194.78
2023-02-27T06:11:36.021Z,103197.34
2023-02-27T06:14:03.392Z,103197.50
2023-02-27T06:16:30.588Z,103215.13
2023-02-27T06:18:57.294Z,103214.34
2023-02-27T06:21:24.045Z,103220.25
2023-02-27T06:23:50.623Z,103227.13
2023-02-27T06:26:17.928Z,103235.75
2023-02-27T06:28:44.577Z,103233.19
2023-02-27T06:31:11.042Z,103236.56
2023-02-27T06:33:37.663Z,103250.19
2023-02-27T06:36:04.562Z,103254.50
2023-02-27T06:38:31.584Z,103255.97
2023-02-27T06:40:58.843Z,103252.59
2023-02-27T06:43:25.394Z,103243.03
2023-02-27T06:45:56.838Z,103251.25
2023-02-27T06:48:23.380Z,103247.59
2023-02-27T06:50:53.913Z,103253.38
2023-02-27T06:53:20.990Z,103250.53
2023-02-27T06:55:47.554Z,103250.16
2023-02-27T06:58:14.131Z,103253.88
2023-02-27T07:00:41.516Z,103252.69
2023-02-27T07:03:08.292Z,103256.28
2023-02-27T07:05:34.774Z,103260.84
2023-02-27T07:08:03.524Z,103256.13
2023-02-27T07:10:30.709Z,103265.50
2023-02-27T07:12:57.262Z,103263.34
2023-02-27T07:15:24.571Z,103258.31
2023-02-27T07:17:51.569Z,103263.69
2023-02-27T07:20:18.178Z,103256.91
2023-02-27T07:22:45.105Z,103265.34
2023-02-27T07:25:11.677Z,103271.38
2023-02-27T07:27:38.506Z,103262.97
2023-02-27T07:30:05.541Z,103263.97
2023-02-27T07:32:32.160Z,103267.28
2023-02-27T07:34:58.804Z,103258.59
2023-02-27T07:37:27.639Z,103259.19
2023-02-27T07:39:54.606Z,103259.59
2023-02-27T07:42:21.198Z,103261.13
2023-02-27T07:44:47.791Z,103263.97
2023-02-27T07:47:14.283Z,103266.00
2023-02-27T07:49:40.823Z,103250.47
2023-02-27T07:52:08.312Z,103254.41
2023-02-27T07:54:37.105Z,103259.28
2023-02-27T07:57:04.878Z,103260.63
2023-02-27T07:59:31.389Z,103262.75
2023-02-27T08:01:58.035Z,103267.94
2023-02-27T08:04:24.577Z,103265.75
2023-02-27T08:06:51.479Z,103274.63
2023-02-27T08:09:17.972Z,103275.59
2023-02-27T08:11:45.213Z,103286.41
2023-02-27T08:14:12.351Z,103282.56
2023-02-27T08:16:38.874Z,103287.91
2023-02-27T08:19:05.513Z,103288.06
2023-02-27T08:21:31.977Z,103279.22
2023-02-27T08:23:58.757Z,103286.47
2023-02-27T08:26:25.571Z,103289.38
2023-02-27T08:28:52.236Z,103294.84
2023-02-27T08:31:18.855Z,103293.22
2023-02-27T08:33:45.502Z,103297.25
2023-02-27T08:36:12.111Z,103299.50
2023-02-27T08:38:38.900Z,103297.75
2023-02-27T08:41:05.648Z,103303.19
2023-02-27T08:43:32.209Z,103309.00
2023-02-27T08:45:58.809Z,103311.88
2023-02-27T08:48:25.394Z,103317.69
2023-02-27T08:50:52.422Z,103317.34
2023-02-27T08:53:19.246Z,103319.59
2023-02-27T08:55:51.015Z,103315.09
2023-02-27T08:58:18.741Z,103326.97
2023-02-27T09:00:45.978Z,103323.28
2023-02-27T09:03:12.564Z,103320.22
2023-02-27T09:05:39.692Z,103323.41
2023-02-27T09:08:07.134Z,103314.88
2023-02-27T09:10:33.778Z,103317.56
2023-02-27T09:13:00.636Z,103319.00
2023-02-27T09:15:27.495Z,103319.16
2023-02-27T09:17:56.513Z,103324.63
2023-02-27T09:20:23.063Z,103327.34
2023-02-27T09:22:49.711Z,103319.75
2023-02-27T09:25:16.277Z,103313.91
2023-02-27T09:27:42.951Z,103320.66
2023-02-27T09:30:10.428Z,103323.50
2023-02-27T09:32:36.977Z,103322.66
2023-02-27T09:35:04.000Z,103322.94
2023-02-27T09:37:30.633Z,103325.94
2023-02-27T09:39:57.106Z,103313.97
2023-02-27T09:42:26.584Z,103324.56
2023-02-27T09:44:57.848Z,103320.88
2023-02-27T09:47:30.672Z,103319.00
2023-02-27T09:50:25.078Z,103322.53
2023-02-27T09:52:51.762Z,103325.84
2023-02-27T09:55:21.637Z,103329.97
2023-02-27T09:58:06.772Z,103324.53
2023-02-27T10:00:57.311Z,103321.88
2023-02-27T10:03:23.882Z,103320.84
2023-02-27T10:05:57.150Z,103329.44
2023-02-27T10:08:32.048Z,103330.44
2023-02-27T10:11:12.270Z,103322.38
2023-02-27T10:13:50.974Z,103326.16
2023-02-27T10:16:20.820Z,103320.56
2023-02-27T10:18:54.975Z,103326.09
2023-02-27T10:21:31.058Z,103314.09
2023-02-27T10:24:01.618Z,103319.00
2023-02-27T10:26:39.726Z,103317.28
2023-02-27T10:29:15.549Z,103320.56
2023-02-27T10:31:46.706Z,103316.06
2023-02-27T10:34:16.372Z,103316.78
2023-02-27T10:36:46.129Z,103313.16
2023-02-27T10:39:17.664Z,103319.38
2023-02-27T10:41:46.292Z,103318.50
2023-02-27T10:44:20.459Z,103314.16
2023-02-27T10:46:51.342Z,103320.50
2023-02-27T10:49:20.933Z,103322.72
2023-02-27T10:52:06.092Z,103315.09
2023-02-27T10:54:32.672Z,103316.97
2023-02-27T10:57:02.519Z,103317.59
2023-02-27T10:59:33.354Z,103305.50
2023-02-27T11:02:06.342Z,103307.06
2023-02-27T11:04:37.034Z,103299.09
2023-02-27T11:07:08.976Z,103303.34
2023-02-27T11:09:36.777Z,103291.97
2023-02-27T11:12:24.354Z,103287.53
2023-02-27T11:14:57.256Z,103277.91
2023-02-27T11:17:28.908Z,103284.28
2023-02-27T11:19:56.862Z,103285.38
2023-02-27T11:22:25.162Z,103271.25
2023-02-27T11:25:12.992Z,103271.84
2023-02-27T11:27:39.530Z,103266.63
2023-02-27T11:30:25.909Z,103267.38
2023-02-27T11:32:54.978Z,103267.81
2023-02-27T11:35:28.613Z,103255.50
2023-02-27T11:37:59.873Z,103257.56
2023-02-27T11:40:50.306Z,103253.38
2023-02-27T11:43:21.434Z,103252.97
2023-02-27T11:46:21.588Z,103248.38
2023-02-27T11:48:48.721Z,103247.16
2023-02-27T11:51:15.305Z,103239.59
2023-02-27T11:54:02.797Z,103256.38
2023-02-27T11:56:39.772Z,103245.91
2023-02-27T11:59:10.446Z,103252.09
2023-02-27T12:01:45.861Z,103242.28
2023-02-27T12:04:24.706Z,103243.34
2023-02-27T12:06:59.406Z,103228.00
2023-02-27T12:09:32.915Z,103241.19
2023-02-27T12:12:03.251Z,103230.81
2023-02-27T12:14:59.148Z,103222.81
2023-02-27T12:17:32.883Z,103234.81
2023-02-27T12:20:20.563Z,103234.81
2023-02-27T12:22:51.841Z,103234.41
2023-02-27T12:25:40.874Z,103235.78
2023-02-27T12:28:21.453Z,103231.03
2023-02-27T12:31:10.480Z,103223.22
2023-02-27T12:33:56.550Z,103223.00
2023-02-27T12:36:23.454Z,103210.34
2023-02-27T12:38:50.040Z,103225.06
2023-02-27T12:41:43.960Z,103209.41
2023-02-27T12:44:48.328Z,103208.06
2023-02-27T12:47:32.745Z,103221.78
2023-02-27T12:50:06.490Z,103220.59
2023-02-27T12:53:01.375Z,103212.59
2023-02-27T12:55:31.735Z,103208.41
2023-02-27T12:58:07.783Z,103210.81
2023-02-27T13:01:06.439Z,103217.63
2023-02-27T13:03:37.307Z,103224.00
2023-02-27T13:06:29.524Z,103215.63
2023-02-27T13:09:18.205Z,103213.19
2023-02-27T13:11:57.519Z,103215.59
2023-02-27T13:14:51.596Z,103209.63
2023-02-27T13:17:34.782Z,103205.19
2023-02-27T13:20:22.485Z,103206.28
2023-02-27T13:23:04.594Z,103202.19
2023-02-27T13:25:36.496Z,103194.72
2023-02-27T13:28:09.034Z,103196.16
2023-02-27T13:30:42.257Z,103207.47
2023-02-27T13:33:30.386Z,103197.59
2023-02-27T13:36:15.124Z,103192.03
2023-02-27T13:38:45.990Z,103210.44
2023-02-27T13:41:24.646Z,103199.44
2023-02-27T13:43:53.409Z,103196.44
2023-02-27T13:46:27.183Z,103197.25
2023-02-27T13:49:05.887Z,103188.41
2023-02-27T13:51:45.754Z,103192.19
2023-02-27T13:54:15.407Z,103194.94
2023-02-27T13:56:48.145Z,103175.19
2023-02-27T13:59:27.072Z,103166.94
2023-02-27T14:01:57.423Z,103187.44
2023-02-27T14:04:27.369Z,103186.94
2023-02-27T14:06:59.950Z,103187.03
2023-02-27T14:09:36.999Z,103182.84
2023-02-27T14:12:06.615Z,103189.22
2023-02-27T14:14:41.412Z,103189.44
2023-02-27T14:17:28.941Z,103192.63
2023-02-27T14:19:57.315Z,103181.25
2023-02-27T14:22:36.333Z,103188.03
2023-02-27T14:25:13.928Z,103187.41
2023-02-27T14:27:43.213Z,103180.22
2023-02-27T14:30:30.276Z,103185.16
2023-02-27T14:33:21.722Z,103193.53
2023-02-27T14:35:58.769Z,103189.50
2023-02-27T14:38:28.234Z,103186.84
2023-02-27T14:41:12.908Z,103187.47
2023-02-27T14:43:53.616Z,103185.41
2023-02-27T14:46:36.653Z,103187.44
2023-02-27T14:49:16.574Z,103192.44
2023-02-27T14:51:43.625Z,103197.19
2023-02-27T14:54:19.387Z,103184.94
2023-02-27T14:57:02.158Z,103192.19
2023-02-27T14:59:51.003Z,103195.31
2023-02-27T15:02:26.086Z,103185.72
2023-02-27T15:05:13.626Z,103178.16
2023-02-27T15:07:40.629Z,103178.00
2023-02-27T15:10:11.831Z,103181.41
2023-02-27T15:12:39.876Z,103180.63
2023-02-27T15:15:09.061Z,103185.63
2023-02-27T15:17:41.677Z,103186.81
2023-02-27T15:20:27.574Z,103190.63
2023-02-27T15:22:54.167Z,103183.63
2023-02-27T15:25:27.689Z,103189.03
2023-02-27T15:28:00.042Z,103183.00
2023-02-27T15:30:26.636Z,103187.97
2023-02-27T15:32:55.633Z,103185.94
2023-02-27T15:35:27.826Z,103191.91
2023-02-27T15:37:57.089Z,103192.47
2023-02-27T15:40:31.868Z,103192.81
2023-02-27T15:43:00.205Z,103192.97
2023-02-27T15:45:33.172Z,103198.16
2023-02-27T15:47:59.981Z,103187.34
2023-02-27T15:50:32.052Z,103194.94
2023-02-27T15:53:10.862Z,103204.13
2023-02-27T15:55:41.782Z,103211.66
2023-02-27T15:58:27.136Z,103206.00
2023-02-27T16:01:03.317Z,103206.22
2023-02-27T16:03:35.628Z,103211.59
2023-02-27T16:06:02.775Z,103200.63
2023-02-27T16:08:31.470Z,103197.41
2023-02-27T16:10:58.214Z,103187.41
2023-02-27T16:13:27.617Z,103197.19
2023-02-27T16:16:03.336Z,103201.13
2023-02-27T16:18:36.575Z,103200.72
2023-02-27T16:21:15.082Z,103194.31
2023-02-27T16:23:44.013Z,103198.09
2023-02-27T16:26:38.441Z,103207.41
2023-02-27T16:29:15.988Z,103200.38
2023-02-27T16:31:49.086Z,103199.56
2023-02-27T16:34:26.135Z,103207.88
2023-02-27T16:36:58.712Z,103207.66
2023-02-27T16:39:26.007Z,103211.59
2023-02-27T16:41:54.167Z,103206.97
2023-02-27T16:44:21.602Z,103209.16
2023-02-27T16:46:48.272Z,103207.91
2023-02-27T16:49:23.887Z,103201.50
2023-02-27T16:51:50.705Z,103205.47
2023-02-27T16:54:18.103Z,103211.16
2023-02-27T16:56:46.664Z,103209.75
2023-02-27T16:59:30.142Z,103203.72
2023-02-27T17:01:58.077Z,103207.66
2023-02-27T17:04:26.696Z,103208.38
2023-02-27T17:06:54.733Z,103207.53
2023-02-27T17:09:22.495Z,103201.47
2023-02-27T17:11:50.214Z,103211.78
2023-02-27T17:14:17.007Z,103222.66
2023-02-27T17:16:43.584Z,103216.16
2023-02-27T17:19:10.352Z,103212.72
2023-02-27T17:21:36.845Z,103219.41
2023-02-27T17:24:03.452Z,103232.06
2023-02-27T17:26:31.136Z,103222.81
2023-02-27T17:28:58.501Z,103235.63
2023-02-27T17:31:25.697Z,103234.59
2023-02-27T17:33:54.045Z,103233.34
2023-02-27T17:36:22.111Z,103230.47
2023-02-27T17:38:53.400Z,103237.94
2023-02-27T17:41:19.973Z,103238.63
2023-02-27T17:43:51.259Z,103234.56
2023-02-27T17:46:17.841Z,103238.97
2023-02-27T17:48:44.370Z,103236.28
2023-02-27T17:51:13.565Z,103244.28
2023-02-27T17:53:40.595Z,103245.16
2023-02-27T17:56:08.007Z,103248.63
2023-02-27T17:58:34.899Z,103248.94
2023-02-27T18:01:22.962Z,103245.91
2023-02-27T18:03:50.362Z,103243.06
2023-02-27T18:06:17.328Z,103241.78
2023-02-27T18:08:43.795Z,103246.50
2023-02-27T18:11:12.243Z,103253.59
2023-02-27T18:13:39.884Z,103241.22
2023-02-27T18:16:06.932Z,103245.91
2023-02-27T18:18:37.661Z,103242.88
2023-02-27T18:21:07.700Z,103246.78
2023-02-27T18:23:34.383Z,103259.38
2023-02-27T18:26:01.041Z,103252.16
2023-02-27T18:28:28.581Z,103269.56
2023-02-27T18:30:55.196Z,103259.94
2023-02-27T18:33:23.066Z,103261.41
2023-02-27T18:35:50.300Z,103256.59
2023-02-27T18:38:17.429Z,103257.75
2023-02-27T18:40:43.924Z,103260.81
2023-02-27T18:43:11.476Z,103260.34
2023-02-27T18:45:38.311Z,103267.63
2023-02-27T18:48:05.145Z,103270.53
2023-02-27T18:50:31.684Z,103266.50
2023-02-27T18:53:01.344Z,103278.94
2023-02-27T18:55:28.111Z,103285.22
2023-02-27T18:57:54.703Z,103286.38
2023-02-27T19:00:22.037Z,103280.38
2023-02-27T19:02:48.682Z,103285.53
2023-02-27T19:05:15.248Z,103284.13
2023-02-27T19:07:42.486Z,103297.97
2023-02-27T19:10:10.471Z,103282.50
2023-02-27T19:12:37.048Z,103291.84
2023-02-27T19:15:05.502Z,103286.69
2023-02-27T19:17:32.417Z,103284.59
2023-02-27T19:19:59.198Z,103285.06
2023-02-27T19:22:29.494Z,103291.50
2023-02-27T19:24:57.651Z,103289.56
2023-02-27T19:27:24.534Z,103290.34
2023-02-27T19:29:51.391Z,103295.16
2023-02-27T19:32:18.487Z,103293.22
2023-02-27T19:34:45.199Z,103294.69
2023-02-27T19:37:11.703Z,103290.16
2023-02-27T19:39:38.237Z,103286.59
2023-02-27T19:42:04.882Z,103290.97
2023-02-27T19:44:31.445Z,103293.03
2023-02-27T19:46:57.945Z,103301.41
2023-02-27T19:49:24.504Z,103300.94
2023-02-27T19:51:51.136Z,103303.84
2023-02-27T19:54:17.771Z,103307.59
2023-02-27T19:56:44.801Z,103303.88
2023-02-27T19:59:12.330Z,103315.34
2023-02-27T20:01:39.207Z,103312.13
2023-02-27T20:04:07.828Z,103313.59
2023-02-27T20:06:42.147Z,103315.84
2023-02-27T20:09:11.564Z,103319.56
2023-02-27T20:11:38.198Z,103311.50
2023-02-27T20:14:05.012Z,103316.38
2023-02-27T20:16:35.625Z,103314.75
2023-02-27T20:19:04.059Z,103318.94
2023-02-27T20:21:33.013Z,103325.53
2023-02-27T20:24:00.437Z,103328.75
2023-02-27T20:26:35.576Z,103326.34
2023-02-27T20:29:06.711Z,103325.06
2023-02-27T20:31:36.550Z,103321.84
2023-02-27T20:34:05.973Z,103320.56
2023-02-27T20:36:34.518Z,103314.59
2023-02-27T20:39:01.246Z,103318.78
2023-02-27T20:41:29.783Z,103309.00
2023-02-27T20:43:56.766Z,103323.16
2023-02-27T20:46:26.601Z,103312.38
2023-02-27T20:48:55.175Z,103317.06
2023-02-27T20:51:23.929Z,103313.22
2023-02-27T20:53:55.838Z,103310.28
2023-02-27T20:56:24.774Z,103314.16
2023-02-27T20:58:51.347Z,103319.31
2023-02-27T21:01:18.792Z,103321.25
2023-02-27T21:03:46.980Z,103319.97
2023-02-27T21:06:15.756Z,103322.84
2023-02-27T21:08:45.790Z,103324.97
2023-02-27T21:11:19.245Z,103315.13
2023-02-27T21:13:50.003Z,103311.09
2023-02-27T21:16:25.816Z,103313.81
2023-02-27T21:18:54.032Z,103308.38
2023-02-27T21:21:24.517Z,103318.19
2023-02-27T21:23:51.855Z,103312.53
2023-02-27T21:26:28.264Z,103321.25
2023-02-27T21:28:57.655Z,103309.66
2023-02-27T21:31:26.428Z,103319.28
2023-02-27T21:33:54.229Z,103328.13
2023-02-27T21:36:36.852Z,103323.47
2023-02-27T21:39:07.270Z,103322.16
2023-02-27T21:41:34.763Z,103323.09
2023-02-27T21:44:03.429Z,103325.88
2023-02-27T21:46:31.729Z,103326.31
2023-02-27T21:48:58.565Z,103329.06
2023-02-27T21:51:40.386Z,103332.91
2023-02-27T21:54:10.409Z,103337.41
2023-02-27T21:56:37.667Z,103336.91
2023-02-27T21:59:04.451Z,103332.72
2023-02-27T22:01:32.078Z,103328.84
2023-02-27T22:03:58.893Z,103331.75
2023-02-27T22:06:27.550Z,103332.19
2023-02-27T22:08:58.281Z,103335.09
2023-02-27T22:11:26.902Z,103338.94
2023-02-27T22:13:54.043Z,103330.56
2023-02-27T22:16:21.504Z,103325.91
2023-02-27T22:18:48.756Z,103329.56
2023-02-27T22:21:17.691Z,103328.91
2023-02-27T22:23:45.329Z,103329.22
2023-02-27T22:26:20.534Z,103321.97
2023-02-27T22:28:47.386Z,103325.81
2023-02-27T22:31:23.037Z,103319.72
2023-02-27T22:33:54.019Z,103321.50
2023-02-27T22:36:23.540Z,103320.00
2023-02-27T22:38:50.047Z,103320.97
2023-02-27T22:41:47.461Z,103334.78
2023-02-27T22:44:16.095Z,103342.50
2023-02-27T22:46:45.775Z,103338.00
2023-02-27T22:49:20.879Z,103338.19
2023-02-27T22:51:51.052Z,103338.84
2023-02-27T22:54:21.118Z,103345.56
2023-02-27T22:56:50.706Z,103338.84
2023-02-27T22:59:17.262Z,103338.97
2023-02-27T23:01:44.205Z,103334.63
2023-02-27T23:04:11.607Z,103329.63
2023-02-27T23:06:40.612Z,103338.97
2023-02-27T23:09:10.709Z,103339.13
2023-02-27T23:11:37.240Z,103336.69
2023-02-27T23:14:03.893Z,103336.69
2023-02-27T23:16:30.474Z,103340.25
2023-02-27T23:18:58.875Z,103336.69
2023-02-27T23:21:34.602Z,103337.53
2023-02-27T23:24:13.071Z,103349.72
2023-02-27T23:26:42.024Z,103354.69
2023-02-27T23:29:09.828Z,103350.19
2023-02-27T23:31:37.461Z,103355.06
2023-02-27T23:34:07.940Z,103346.53
2023-02-27T23:36:38.920Z,103351.50
2023-02-27T23:39:07.115Z,103346.38
2023-02-27T23:41:34.173Z,103355.38
2023-02-27T23:44:01.582Z,103352.81
2023-02-27T23:46:30.307Z,103363.94
2023-02-27T23:48:58.496Z,103358.59
2023-02-27T23:51:25.126Z,103359.13
2023-02-27T23:53:51.612Z,103352.19
2023-02-27T23:56:24.577Z,103351.41
2023-02-27T23:58:55.171Z,103352.06
